sensor_id;sensor_type;location;lat;lon;timestamp;P1;durP1;ratioP1;P2;durP2;ratioP2
17482;SDS011;8858;52.308;20.994;2023-07-20T00:01:17;3.85;;;2.58;;
17482;SDS011;8858;52.308;20.994;2023-07-20T00:03:50;3.78;;;3.05;;
17482;SDS011;8858;52.308;20.994;2023-07-20T00:06:22;4.40;;;2.95;;
17482;SDS011;8858;52.308;20.994;2023-07-20T00:08:52;2.58;;;2.38;;
17482;SDS011;8858;52.308;20.994;2023-07-20T00:11:25;3.00;;;2.70;;
17482;SDS011;8858;52.308;20.994;2023-07-20T00:13:54;5.32;;;3.20;;
17482;SDS011;8858;52.308;20.994;2023-07-20T00:16:26;3.83;;;3.05;;
17482;SDS011;8858;52.308;20.994;2023-07-20T00:18:56;6.53;;;2.70;;
17482;SDS011;8858;52.308;20.994;2023-07-20T00:21:27;5.27;;;2.90;;
17482;SDS011;8858;52.308;20.994;2023-07-20T00:23:55;4.03;;;2.75;;
17482;SDS011;8858;52.308;20.994;2023-07-20T00:26:24;3.85;;;2.58;;
17482;SDS011;8858;52.308;20.994;2023-07-20T00:28:55;5.05;;;3.20;;
17482;SDS011;8858;52.308;20.994;2023-07-20T00:31:24;3.30;;;3.00;;
17482;SDS011;8858;52.308;20.994;2023-07-20T00:33:57;3.20;;;2.90;;
17482;SDS011;8858;52.308;20.994;2023-07-20T00:36:25;4.18;;;2.92;;
17482;SDS011;8858;52.308;20.994;2023-07-20T00:38:54;5.20;;;2.70;;
17482;SDS011;8858;52.308;20.994;2023-07-20T00:41:23;4.13;;;2.90;;
17482;SDS011;8858;52.308;20.994;2023-07-20T00:43:56;6.45;;;3.20;;
17482;SDS011;8858;52.308;20.994;2023-07-20T00:46:26;6.40;;;2.80;;
17482;SDS011;8858;52.308;20.994;2023-07-20T00:48:57;4.22;;;2.95;;
17482;SDS011;8858;52.308;20.994;2023-07-20T00:51:29;4.45;;;2.88;;
17482;SDS011;8858;52.308;20.994;2023-07-20T00:53:57;4.10;;;2.83;;
17482;SDS011;8858;52.308;20.994;2023-07-20T00:56:25;3.33;;;2.58;;
17482;SDS011;8858;52.308;20.994;2023-07-20T00:58:54;5.00;;;3.30;;
17482;SDS011;8858;52.308;20.994;2023-07-20T01:01:22;5.30;;;2.77;;
17482;SDS011;8858;52.308;20.994;2023-07-20T01:03:51;4.15;;;2.60;;
17482;SDS011;8858;52.308;20.994;2023-07-20T01:06:25;3.10;;;2.80;;
17482;SDS011;8858;52.308;20.994;2023-07-20T01:09:08;3.70;;;2.88;;
17482;SDS011;8858;52.308;20.994;2023-07-20T01:11:43;3.55;;;2.80;;
17482;SDS011;8858;52.308;20.994;2023-07-20T01:14:18;3.15;;;2.60;;
17482;SDS011;8858;52.308;20.994;2023-07-20T01:16:47;3.90;;;2.72;;
17482;SDS011;8858;52.308;20.994;2023-07-20T01:19:24;5.93;;;2.90;;
17482;SDS011;8858;52.308;20.994;2023-07-20T01:21:55;4.13;;;2.70;;
17482;SDS011;8858;52.308;20.994;2023-07-20T01:27:46;3.25;;;2.92;;
17482;SDS011;8858;52.308;20.994;2023-07-20T01:30:43;3.30;;;2.80;;
17482;SDS011;8858;52.308;20.994;2023-07-20T01:33:20;4.83;;;3.33;;
17482;SDS011;8858;52.308;20.994;2023-07-20T01:35:50;4.00;;;2.87;;
17482;SDS011;8858;52.308;20.994;2023-07-20T01:38:25;3.92;;;3.60;;
17482;SDS011;8858;52.308;20.994;2023-07-20T01:40:53;6.30;;;3.30;;
17482;SDS011;8858;52.308;20.994;2023-07-20T01:43:23;3.30;;;2.60;;
17482;SDS011;8858;52.308;20.994;2023-07-20T01:45:54;4.10;;;3.03;;
17482;SDS011;8858;52.308;20.994;2023-07-20T01:48:25;6.60;;;3.13;;
17482;SDS011;8858;52.308;20.994;2023-07-20T01:50:54;4.30;;;3.00;;
17482;SDS011;8858;52.308;20.994;2023-07-20T01:53:23;6.88;;;2.88;;
17482;SDS011;8858;52.308;20.994;2023-07-20T01:55:52;3.83;;;2.70;;
17482;SDS011;8858;52.308;20.994;2023-07-20T01:58:23;12.32;;;8.45;;
17482;SDS011;8858;52.308;20.994;2023-07-20T02:00:52;8.90;;;6.78;;
17482;SDS011;8858;52.308;20.994;2023-07-20T02:03:23;7.53;;;3.97;;
17482;SDS011;8858;52.308;20.994;2023-07-20T02:05:53;9.57;;;3.45;;
17482;SDS011;8858;52.308;20.994;2023-07-20T02:08:25;5.07;;;3.15;;
17482;SDS011;8858;52.308;20.994;2023-07-20T02:10:56;7.57;;;3.10;;
17482;SDS011;8858;52.308;20.994;2023-07-20T02:13:25;5.63;;;2.80;;
17482;SDS011;8858;52.308;20.994;2023-07-20T02:15:53;3.25;;;2.92;;
17482;SDS011;8858;52.308;20.994;2023-07-20T02:18:22;4.47;;;2.80;;
17482;SDS011;8858;52.308;20.994;2023-07-20T02:20:53;3.97;;;2.77;;
17482;SDS011;8858;52.308;20.994;2023-07-20T02:23:22;4.60;;;2.67;;
17482;SDS011;8858;52.308;20.994;2023-07-20T02:25:51;4.63;;;2.80;;
17482;SDS011;8858;52.308;20.994;2023-07-20T02:28:20;4.00;;;2.83;;
17482;SDS011;8858;52.308;20.994;2023-07-20T02:30:48;3.23;;;2.50;;
17482;SDS011;8858;52.308;20.994;2023-07-20T02:33:17;4.27;;;2.97;;
17482;SDS011;8858;52.308;20.994;2023-07-20T02:35:46;4.00;;;2.67;;
17482;SDS011;8858;52.308;20.994;2023-07-20T02:38:16;3.15;;;2.50;;
17482;SDS011;8858;52.308;20.994;2023-07-20T02:40:45;2.70;;;2.50;;
17482;SDS011;8858;52.308;20.994;2023-07-20T02:43:13;2.53;;;2.33;;
17482;SDS011;8858;52.308;20.994;2023-07-20T02:45:43;3.83;;;2.53;;
17482;SDS011;8858;52.308;20.994;2023-07-20T02:48:14;5.90;;;3.13;;
17482;SDS011;8858;52.308;20.994;2023-07-20T02:50:43;4.17;;;3.00;;
17482;SDS011;8858;52.308;20.994;2023-07-20T02:53:13;3.13;;;2.83;;
17482;SDS011;8858;52.308;20.994;2023-07-20T02:55:43;3.23;;;2.80;;
17482;SDS011;8858;52.308;20.994;2023-07-20T02:58:13;4.23;;;2.80;;
17482;SDS011;8858;52.308;20.994;2023-07-20T03:00:42;2.67;;;2.47;;
17482;SDS011;8858;52.308;20.994;2023-07-20T03:03:10;2.90;;;2.60;;
17482;SDS011;8858;52.308;20.994;2023-07-20T03:05:41;4.83;;;2.57;;
17482;SDS011;8858;52.308;20.994;2023-07-20T03:08:09;6.15;;;3.40;;
17482;SDS011;8858;52.308;20.994;2023-07-20T03:10:39;4.10;;;2.80;;
17482;SDS011;8858;52.308;20.994;2023-07-20T03:13:09;3.72;;;2.80;;
17482;SDS011;8858;52.308;20.994;2023-07-20T03:15:39;3.17;;;2.65;;
17482;SDS011;8858;52.308;20.994;2023-07-20T03:18:10;5.70;;;3.10;;
17482;SDS011;8858;52.308;20.994;2023-07-20T03:20:38;5.50;;;3.10;;
17482;SDS011;8858;52.308;20.994;2023-07-20T03:23:07;9.07;;;3.10;;
17482;SDS011;8858;52.308;20.994;2023-07-20T03:25:38;3.53;;;2.80;;
17482;SDS011;8858;52.308;20.994;2023-07-20T03:28:09;4.93;;;3.23;;
17482;SDS011;8858;52.308;20.994;2023-07-20T03:30:37;7.60;;;3.40;;
17482;SDS011;8858;52.308;20.994;2023-07-20T03:33:06;5.50;;;3.65;;
17482;SDS011;8858;52.308;20.994;2023-07-20T03:35:35;5.37;;;3.27;;
17482;SDS011;8858;52.308;20.994;2023-07-20T03:38:09;4.17;;;3.37;;
17482;SDS011;8858;52.308;20.994;2023-07-20T03:40:37;8.33;;;3.40;;
17482;SDS011;8858;52.308;20.994;2023-07-20T03:43:06;4.37;;;3.23;;
17482;SDS011;8858;52.308;20.994;2023-07-20T03:45:37;5.03;;;3.45;;
17482;SDS011;8858;52.308;20.994;2023-07-20T03:48:09;4.57;;;3.00;;
17482;SDS011;8858;52.308;20.994;2023-07-20T03:50:37;4.33;;;3.40;;
17482;SDS011;8858;52.308;20.994;2023-07-20T03:53:06;5.40;;;3.40;;
17482;SDS011;8858;52.308;20.994;2023-07-20T03:55:35;4.63;;;3.93;;
17482;SDS011;8858;52.308;20.994;2023-07-20T03:58:03;3.67;;;3.20;;
17482;SDS011;8858;52.308;20.994;2023-07-20T04:00:32;4.10;;;3.70;;
17482;SDS011;8858;52.308;20.994;2023-07-20T04:03:05;3.40;;;2.93;;
17482;SDS011;8858;52.308;20.994;2023-07-20T04:05:34;6.30;;;3.60;;
17482;SDS011;8858;52.308;20.994;2023-07-20T04:08:03;3.27;;;2.97;;
17482;SDS011;8858;52.308;20.994;2023-07-20T04:10:32;5.13;;;3.43;;
17482;SDS011;8858;52.308;20.994;2023-07-20T04:13:01;7.57;;;3.60;;
17482;SDS011;8858;52.308;20.994;2023-07-20T04:15:30;5.53;;;3.63;;
17482;SDS011;8858;52.308;20.994;2023-07-20T04:17:59;5.53;;;3.53;;
17482;SDS011;8858;52.308;20.994;2023-07-20T04:20:30;6.20;;;3.53;;
17482;SDS011;8858;52.308;20.994;2023-07-20T04:22:59;4.13;;;3.40;;
17482;SDS011;8858;52.308;20.994;2023-07-20T04:25:28;6.33;;;3.30;;
17482;SDS011;8858;52.308;20.994;2023-07-20T04:28:07;5.23;;;3.83;;
17482;SDS011;8858;52.308;20.994;2023-07-20T04:30:42;4.83;;;3.90;;
17482;SDS011;8858;52.308;20.994;2023-07-20T04:33:10;6.53;;;3.80;;
17482;SDS011;8858;52.308;20.994;2023-07-20T04:35:51;7.63;;;4.13;;
17482;SDS011;8858;52.308;20.994;2023-07-20T04:38:27;5.27;;;3.90;;
17482;SDS011;8858;52.308;20.994;2023-07-20T04:41:13;6.77;;;4.00;;
17482;SDS011;8858;52.308;20.994;2023-07-20T04:43:45;10.97;;;9.23;;
17482;SDS011;8858;52.308;20.994;2023-07-20T04:46:19;6.27;;;4.37;;
17482;SDS011;8858;52.308;20.994;2023-07-20T04:48:49;6.40;;;4.10;;
17482;SDS011;8858;52.308;20.994;2023-07-20T04:51:20;5.63;;;4.03;;
17482;SDS011;8858;52.308;20.994;2023-07-20T04:53:53;6.40;;;4.20;;
17482;SDS011;8858;52.308;20.994;2023-07-20T04:56:22;7.00;;;4.40;;
17482;SDS011;8858;52.308;20.994;2023-07-20T04:58:53;4.67;;;4.17;;
17482;SDS011;8858;52.308;20.994;2023-07-20T05:01:22;4.67;;;4.20;;
17482;SDS011;8858;52.308;20.994;2023-07-20T05:03:54;5.13;;;4.60;;
17482;SDS011;8858;52.308;20.994;2023-07-20T05:06:24;5.97;;;4.60;;
17482;SDS011;8858;52.308;20.994;2023-07-20T05:08:53;5.87;;;4.90;;
17482;SDS011;8858;52.308;20.994;2023-07-20T05:11:21;7.10;;;4.47;;
17482;SDS011;8858;52.308;20.994;2023-07-20T05:13:50;6.00;;;4.80;;
17482;SDS011;8858;52.308;20.994;2023-07-20T05:16:19;5.67;;;4.57;;
17482;SDS011;8858;52.308;20.994;2023-07-20T05:18:48;5.23;;;4.73;;
17482;SDS011;8858;52.308;20.994;2023-07-20T05:21:17;6.63;;;4.70;;
17482;SDS011;8858;52.308;20.994;2023-07-20T05:23:47;7.13;;;4.77;;
17482;SDS011;8858;52.308;20.994;2023-07-20T05:26:17;5.83;;;5.10;;
17482;SDS011;8858;52.308;20.994;2023-07-20T05:28:45;6.30;;;4.63;;
17482;SDS011;8858;52.308;20.994;2023-07-20T05:31:13;7.40;;;4.87;;
17482;SDS011;8858;52.308;20.994;2023-07-20T05:33:41;6.33;;;4.70;;
17482;SDS011;8858;52.308;20.994;2023-07-20T05:36:11;9.03;;;5.03;;
17482;SDS011;8858;52.308;20.994;2023-07-20T05:38:40;7.27;;;4.37;;
17482;SDS011;8858;52.308;20.994;2023-07-20T05:41:34;6.07;;;4.17;;
17482;SDS011;8858;52.308;20.994;2023-07-20T05:44:02;5.73;;;4.67;;
17482;SDS011;8858;52.308;20.994;2023-07-20T05:46:30;5.43;;;4.80;;
17482;SDS011;8858;52.308;20.994;2023-07-20T05:49:17;7.23;;;5.17;;
17482;SDS011;8858;52.308;20.994;2023-07-20T05:51:46;5.17;;;4.60;;
17482;SDS011;8858;52.308;20.994;2023-07-20T05:54:14;6.00;;;4.67;;
17482;SDS011;8858;52.308;20.994;2023-07-20T05:56:45;5.53;;;4.70;;
17482;SDS011;8858;52.308;20.994;2023-07-20T05:59:13;5.30;;;4.80;;
17482;SDS011;8858;52.308;20.994;2023-07-20T06:01:42;6.87;;;4.97;;
17482;SDS011;8858;52.308;20.994;2023-07-20T06:04:11;6.07;;;5.23;;
17482;SDS011;8858;52.308;20.994;2023-07-20T06:06:39;6.73;;;6.03;;
17482;SDS011;8858;52.308;20.994;2023-07-20T06:09:11;5.93;;;4.87;;
17482;SDS011;8858;52.308;20.994;2023-07-20T06:11:41;7.03;;;4.70;;
17482;SDS011;8858;52.308;20.994;2023-07-20T06:14:11;6.90;;;5.00;;
17482;SDS011;8858;52.308;20.994;2023-07-20T06:16:40;5.83;;;5.00;;
17482;SDS011;8858;52.308;20.994;2023-07-20T06:19:08;5.10;;;4.60;;
17482;SDS011;8858;52.308;20.994;2023-07-20T06:21:39;5.60;;;5.03;;
17482;SDS011;8858;52.308;20.994;2023-07-20T06:24:08;8.83;;;5.43;;
17482;SDS011;8858;52.308;20.994;2023-07-20T06:26:38;9.77;;;5.10;;
17482;SDS011;8858;52.308;20.994;2023-07-20T06:29:07;6.33;;;4.50;;
17482;SDS011;8858;52.308;20.994;2023-07-20T06:31:38;8.53;;;5.53;;
17482;SDS011;8858;52.308;20.994;2023-07-20T06:34:07;6.13;;;4.70;;
17482;SDS011;8858;52.308;20.994;2023-07-20T06:36:36;8.40;;;5.03;;
17482;SDS011;8858;52.308;20.994;2023-07-20T06:39:05;10.50;;;5.03;;
17482;SDS011;8858;52.308;20.994;2023-07-20T06:41:36;9.82;;;5.63;;
17482;SDS011;8858;52.308;20.994;2023-07-20T06:44:08;7.43;;;4.93;;
17482;SDS011;8858;52.308;20.994;2023-07-20T06:46:38;7.28;;;4.75;;
17482;SDS011;8858;52.308;20.994;2023-07-20T06:49:07;6.50;;;4.63;;
17482;SDS011;8858;52.308;20.994;2023-07-20T06:51:42;5.30;;;4.53;;
17482;SDS011;8858;52.308;20.994;2023-07-20T06:54:10;7.47;;;5.03;;
17482;SDS011;8858;52.308;20.994;2023-07-20T06:56:41;7.83;;;4.73;;
17482;SDS011;8858;52.308;20.994;2023-07-20T06:59:11;6.40;;;4.53;;
17482;SDS011;8858;52.308;20.994;2023-07-20T07:01:42;9.93;;;4.40;;
17482;SDS011;8858;52.308;20.994;2023-07-20T07:04:11;4.53;;;4.13;;
17482;SDS011;8858;52.308;20.994;2023-07-20T07:06:40;4.85;;;4.22;;
17482;SDS011;8858;52.308;20.994;2023-07-20T07:09:11;5.30;;;4.37;;
17482;SDS011;8858;52.308;20.994;2023-07-20T07:11:40;5.32;;;4.30;;
17482;SDS011;8858;52.308;20.994;2023-07-20T07:14:08;6.50;;;4.70;;
17482;SDS011;8858;52.308;20.994;2023-07-20T07:16:39;11.07;;;4.63;;
17482;SDS011;8858;52.308;20.994;2023-07-20T07:19:12;7.33;;;4.37;;
17482;SDS011;8858;52.308;20.994;2023-07-20T07:21:40;5.93;;;4.35;;
17482;SDS011;8858;52.308;20.994;2023-07-20T07:24:09;4.15;;;3.85;;
17482;SDS011;8858;52.308;20.994;2023-07-20T07:26:38;6.43;;;4.83;;
17482;SDS011;8858;52.308;20.994;2023-07-20T07:29:06;9.57;;;4.50;;
17482;SDS011;8858;52.308;20.994;2023-07-20T07:31:35;6.30;;;4.43;;
17482;SDS011;8858;52.308;20.994;2023-07-20T07:34:07;5.83;;;4.20;;
17482;SDS011;8858;52.308;20.994;2023-07-20T07:36:36;5.80;;;4.37;;
17482;SDS011;8858;52.308;20.994;2023-07-20T07:39:06;8.47;;;4.43;;
17482;SDS011;8858;52.308;20.994;2023-07-20T07:41:37;7.20;;;4.40;;
17482;SDS011;8858;52.308;20.994;2023-07-20T07:44:06;6.00;;;4.27;;
17482;SDS011;8858;52.308;20.994;2023-07-20T07:46:35;5.10;;;4.30;;
17482;SDS011;8858;52.308;20.994;2023-07-20T07:49:04;5.40;;;3.97;;
17482;SDS011;8858;52.308;20.994;2023-07-20T07:51:34;4.60;;;3.73;;
17482;SDS011;8858;52.308;20.994;2023-07-20T07:54:03;6.77;;;4.40;;
17482;SDS011;8858;52.308;20.994;2023-07-20T07:56:36;5.10;;;3.83;;
17482;SDS011;8858;52.308;20.994;2023-07-20T07:59:04;3.90;;;3.43;;
17482;SDS011;8858;52.308;20.994;2023-07-20T08:01:33;4.20;;;3.80;;
17482;SDS011;8858;52.308;20.994;2023-07-20T08:04:01;3.57;;;3.27;;
17482;SDS011;8858;52.308;20.994;2023-07-20T08:06:32;5.13;;;3.50;;
17482;SDS011;8858;52.308;20.994;2023-07-20T08:09:01;5.20;;;3.50;;
17482;SDS011;8858;52.308;20.994;2023-07-20T08:11:30;4.10;;;3.20;;
17482;SDS011;8858;52.308;20.994;2023-07-20T08:14:00;3.30;;;2.90;;
17482;SDS011;8858;52.308;20.994;2023-07-20T08:16:28;3.53;;;3.20;;
17482;SDS011;8858;52.308;20.994;2023-07-20T08:18:59;4.50;;;3.77;;
17482;SDS011;8858;52.308;20.994;2023-07-20T08:21:28;4.43;;;3.40;;
17482;SDS011;8858;52.308;20.994;2023-07-20T08:23:58;3.80;;;3.40;;
17482;SDS011;8858;52.308;20.994;2023-07-20T08:26:26;4.23;;;3.87;;
17482;SDS011;8858;52.308;20.994;2023-07-20T08:28:55;5.37;;;3.90;;
17482;SDS011;8858;52.308;20.994;2023-07-20T08:31:23;5.23;;;4.63;;
17482;SDS011;8858;52.308;20.994;2023-07-20T08:33:51;6.70;;;4.53;;
17482;SDS011;8858;52.308;20.994;2023-07-20T08:36:19;5.37;;;4.43;;
17482;SDS011;8858;52.308;20.994;2023-07-20T08:38:48;5.63;;;4.37;;
17482;SDS011;8858;52.308;20.994;2023-07-20T08:41:18;5.60;;;4.87;;
17482;SDS011;8858;52.308;20.994;2023-07-20T08:43:46;9.13;;;5.13;;
17482;SDS011;8858;52.308;20.994;2023-07-20T08:46:15;5.90;;;4.70;;
17482;SDS011;8858;52.308;20.994;2023-07-20T08:48:44;5.03;;;4.60;;
17482;SDS011;8858;52.308;20.994;2023-07-20T08:51:17;5.40;;;4.70;;
17482;SDS011;8858;52.308;20.994;2023-07-20T08:53:48;6.33;;;4.80;;
17482;SDS011;8858;52.308;20.994;2023-07-20T08:56:20;5.47;;;4.78;;
17482;SDS011;8858;52.308;20.994;2023-07-20T08:58:51;4.57;;;4.10;;
17482;SDS011;8858;52.308;20.994;2023-07-20T09:01:20;5.60;;;4.32;;
17482;SDS011;8858;52.308;20.994;2023-07-20T09:03:49;3.78;;;3.30;;
17482;SDS011;8858;52.308;20.994;2023-07-20T09:06:18;3.25;;;2.97;;
17482;SDS011;8858;52.308;20.994;2023-07-20T09:08:46;2.78;;;2.00;;
17482;SDS011;8858;52.308;20.994;2023-07-20T09:11:14;3.22;;;2.13;;
17482;SDS011;8858;52.308;20.994;2023-07-20T09:13:45;2.55;;;2.20;;
17482;SDS011;8858;52.308;20.994;2023-07-20T09:16:17;4.10;;;3.10;;
17482;SDS011;8858;52.308;20.994;2023-07-20T09:18:45;3.35;;;2.85;;
17482;SDS011;8858;52.308;20.994;2023-07-20T09:21:14;3.85;;;2.97;;
17482;SDS011;8858;52.308;20.994;2023-07-20T09:23:45;4.10;;;3.13;;
17482;SDS011;8858;52.308;20.994;2023-07-20T09:26:18;4.50;;;3.50;;
17482;SDS011;8858;52.308;20.994;2023-07-20T09:28:49;3.95;;;3.20;;
17482;SDS011;8858;52.308;20.994;2023-07-20T09:31:21;4.85;;;3.70;;
17482;SDS011;8858;52.308;20.994;2023-07-20T09:33:51;4.50;;;3.30;;
17482;SDS011;8858;52.308;20.994;2023-07-20T09:36:23;4.30;;;2.70;;
17482;SDS011;8858;52.308;20.994;2023-07-20T09:38:58;3.00;;;2.50;;
17482;SDS011;8858;52.308;20.994;2023-07-20T09:41:30;4.85;;;3.10;;
17482;SDS011;8858;52.308;20.994;2023-07-20T09:44:12;3.35;;;3.05;;
17482;SDS011;8858;52.308;20.994;2023-07-20T09:46:45;4.47;;;3.28;;
17482;SDS011;8858;52.308;20.994;2023-07-20T09:49:18;5.25;;;2.80;;
17482;SDS011;8858;52.308;20.994;2023-07-20T09:51:49;4.20;;;2.80;;
17482;SDS011;8858;52.308;20.994;2023-07-20T09:54:18;2.70;;;2.50;;
17482;SDS011;8858;52.308;20.994;2023-07-20T09:56:49;2.10;;;2.00;;
17482;SDS011;8858;52.308;20.994;2023-07-20T09:59:21;2.08;;;1.88;;
17482;SDS011;8858;52.308;20.994;2023-07-20T10:01:50;4.87;;;2.30;;
17482;SDS011;8858;52.308;20.994;2023-07-20T10:04:25;3.15;;;2.50;;
17482;SDS011;8858;52.308;20.994;2023-07-20T10:06:56;3.22;;;2.33;;
17482;SDS011;8858;52.308;20.994;2023-07-20T10:09:28;2.37;;;2.17;;
17482;SDS011;8858;52.308;20.994;2023-07-20T10:12:00;2.43;;;2.23;;
17482;SDS011;8858;52.308;20.994;2023-07-20T10:14:44;3.28;;;2.10;;
17482;SDS011;8858;52.308;20.994;2023-07-20T10:17:19;1.73;;;1.63;;
17482;SDS011;8858;52.308;20.994;2023-07-20T10:19:49;2.00;;;1.90;;
17482;SDS011;8858;52.308;20.994;2023-07-20T10:22:23;3.90;;;2.63;;
17482;SDS011;8858;52.308;20.994;2023-07-20T10:24:54;2.47;;;1.90;;
17482;SDS011;8858;52.308;20.994;2023-07-20T10:27:25;2.57;;;2.13;;
17482;SDS011;8858;52.308;20.994;2023-07-20T10:29:58;3.00;;;2.20;;
17482;SDS011;8858;52.308;20.994;2023-07-20T10:32:32;4.23;;;2.47;;
17482;SDS011;8858;52.308;20.994;2023-07-20T10:35:01;3.22;;;2.47;;
17482;SDS011;8858;52.308;20.994;2023-07-20T10:37:47;3.20;;;2.22;;
17482;SDS011;8858;52.308;20.994;2023-07-20T10:40:32;3.85;;;2.67;;
17482;SDS011;8858;52.308;20.994;2023-07-20T10:43:03;3.42;;;2.40;;
17482;SDS011;8858;52.308;20.994;2023-07-20T10:45:37;2.55;;;2.35;;
17482;SDS011;8858;52.308;20.994;2023-07-20T10:48:14;2.60;;;2.40;;
17482;SDS011;8858;52.308;20.994;2023-07-20T10:50:43;2.33;;;2.22;;
17482;SDS011;8858;52.308;20.994;2023-07-20T10:53:12;2.90;;;2.35;;
17482;SDS011;8858;52.308;20.994;2023-07-20T10:55:45;5.25;;;2.70;;
17482;SDS011;8858;52.308;20.994;2023-07-20T10:58:18;2.63;;;2.42;;
17482;SDS011;8858;52.308;20.994;2023-07-20T11:00:59;3.45;;;3.00;;
17482;SDS011;8858;52.308;20.994;2023-07-20T11:03:30;3.40;;;2.80;;
17482;SDS011;8858;52.308;20.994;2023-07-20T11:09:08;3.17;;;2.60;;
17482;SDS011;8858;52.308;20.994;2023-07-20T11:11:42;3.08;;;2.33;;
17482;SDS011;8858;52.308;20.994;2023-07-20T11:14:20;2.35;;;1.90;;
17482;SDS011;8858;52.308;20.994;2023-07-20T11:16:50;3.67;;;2.33;;
17482;SDS011;8858;52.308;20.994;2023-07-20T11:19:20;2.67;;;2.10;;
17482;SDS011;8858;52.308;20.994;2023-07-20T11:21:53;2.95;;;2.10;;
17482;SDS011;8858;52.308;20.994;2023-07-20T11:24:29;2.10;;;1.90;;
17482;SDS011;8858;52.308;20.994;2023-07-20T11:26:59;2.47;;;2.15;;
17482;SDS011;8858;52.308;20.994;2023-07-20T11:29:31;2.20;;;2.00;;
17482;SDS011;8858;52.308;20.994;2023-07-20T11:32:02;4.47;;;2.20;;
17482;SDS011;8858;52.308;20.994;2023-07-20T11:34:32;2.13;;;1.92;;
17482;SDS011;8858;52.308;20.994;2023-07-20T11:37:05;2.20;;;2.00;;
17482;SDS011;8858;52.308;20.994;2023-07-20T11:39:37;3.85;;;2.47;;
17482;SDS011;8858;52.308;20.994;2023-07-20T11:42:08;3.92;;;2.50;;
17482;SDS011;8858;52.308;20.994;2023-07-20T11:44:40;3.85;;;2.47;;
17482;SDS011;8858;52.308;20.994;2023-07-20T11:47:11;3.10;;;2.60;;
17482;SDS011;8858;52.308;20.994;2023-07-20T11:49:40;3.70;;;2.88;;
17482;SDS011;8858;52.308;20.994;2023-07-20T11:52:09;2.50;;;2.30;;
17482;SDS011;8858;52.308;20.994;2023-07-20T11:54:41;3.20;;;2.30;;
17482;SDS011;8858;52.308;20.994;2023-07-20T11:57:16;3.80;;;2.17;;
17482;SDS011;8858;52.308;20.994;2023-07-20T11:59:54;2.60;;;2.20;;
17482;SDS011;8858;52.308;20.994;2023-07-20T12:02:27;2.25;;;1.80;;
17482;SDS011;8858;52.308;20.994;2023-07-20T12:04:57;1.80;;;1.70;;
17482;SDS011;8858;52.308;20.994;2023-07-20T12:07:26;2.08;;;1.98;;
17482;SDS011;8858;52.308;20.994;2023-07-20T12:10:05;2.38;;;2.10;;
17482;SDS011;8858;52.308;20.994;2023-07-20T12:12:37;2.35;;;2.15;;
17482;SDS011;8858;52.308;20.994;2023-07-20T12:15:14;2.00;;;1.90;;
17482;SDS011;8858;52.308;20.994;2023-07-20T12:17:45;1.60;;;1.50;;
17482;SDS011;8858;52.308;20.994;2023-07-20T12:20:23;2.20;;;2.00;;
17482;SDS011;8858;52.308;20.994;2023-07-20T12:22:52;1.90;;;1.60;;
17482;SDS011;8858;52.308;20.994;2023-07-20T12:25:23;1.80;;;1.70;;
17482;SDS011;8858;52.308;20.994;2023-07-20T12:28:04;1.67;;;1.58;;
17482;SDS011;8858;52.308;20.994;2023-07-20T12:30:36;1.40;;;1.38;;
17482;SDS011;8858;52.308;20.994;2023-07-20T12:33:06;1.55;;;1.50;;
17482;SDS011;8858;52.308;20.994;2023-07-20T12:35:35;1.25;;;1.25;;
17482;SDS011;8858;52.308;20.994;2023-07-20T12:38:04;1.77;;;1.30;;
17482;SDS011;8858;52.308;20.994;2023-07-20T12:40:33;1.38;;;1.38;;
17482;SDS011;8858;52.308;20.994;2023-07-20T12:43:03;1.38;;;1.27;;
17482;SDS011;8858;52.308;20.994;2023-07-20T12:45:32;1.73;;;1.20;;
17482;SDS011;8858;52.308;20.994;2023-07-20T12:48:01;1.77;;;1.67;;
17482;SDS011;8858;52.308;20.994;2023-07-20T12:50:31;1.60;;;1.50;;
17482;SDS011;8858;52.308;20.994;2023-07-20T12:52:59;3.45;;;2.10;;
17482;SDS011;8858;52.308;20.994;2023-07-20T12:55:34;2.45;;;2.10;;
17482;SDS011;8858;52.308;20.994;2023-07-20T12:58:02;3.33;;;2.22;;
17482;SDS011;8858;52.308;20.994;2023-07-20T13:00:30;1.85;;;1.75;;
17482;SDS011;8858;52.308;20.994;2023-07-20T13:02:59;1.92;;;1.83;;
17482;SDS011;8858;52.308;20.994;2023-07-20T13:05:37;1.98;;;1.65;;
17482;SDS011;8858;52.308;20.994;2023-07-20T13:08:08;2.55;;;2.30;;
17482;SDS011;8858;52.308;20.994;2023-07-20T13:10:41;2.45;;;2.25;;
17482;SDS011;8858;52.308;20.994;2023-07-20T13:13:10;3.58;;;1.90;;
17482;SDS011;8858;52.308;20.994;2023-07-20T13:15:42;2.90;;;2.15;;
17482;SDS011;8858;52.308;20.994;2023-07-20T13:18:16;2.22;;;1.95;;
17482;SDS011;8858;52.308;20.994;2023-07-20T13:20:46;1.58;;;1.48;;
17482;SDS011;8858;52.308;20.994;2023-07-20T13:23:14;2.03;;;1.90;;
17482;SDS011;8858;52.308;20.994;2023-07-20T13:25:43;2.47;;;2.20;;
17482;SDS011;8858;52.308;20.994;2023-07-20T13:28:11;4.18;;;2.22;;
17482;SDS011;8858;52.308;20.994;2023-07-20T13:30:39;3.83;;;1.95;;
17482;SDS011;8858;52.308;20.994;2023-07-20T13:33:08;2.28;;;1.70;;
17482;SDS011;8858;52.308;20.994;2023-07-20T13:35:43;3.20;;;1.75;;
17482;SDS011;8858;52.308;20.994;2023-07-20T13:38:16;1.95;;;1.85;;
17482;SDS011;8858;52.308;20.994;2023-07-20T13:40:45;2.78;;;1.70;;
17482;SDS011;8858;52.308;20.994;2023-07-20T13:43:14;1.33;;;1.23;;
17482;SDS011;8858;52.308;20.994;2023-07-20T13:45:42;1.90;;;1.80;;
17482;SDS011;8858;52.308;20.994;2023-07-20T13:48:11;2.40;;;2.00;;
17482;SDS011;8858;52.308;20.994;2023-07-20T13:50:43;2.45;;;1.92;;
17482;SDS011;8858;52.308;20.994;2023-07-20T13:53:30;4.22;;;1.70;;
17482;SDS011;8858;52.308;20.994;2023-07-20T13:56:01;1.83;;;1.73;;
17482;SDS011;8858;52.308;20.994;2023-07-20T13:58:36;2.13;;;1.92;;
17482;SDS011;8858;52.308;20.994;2023-07-20T14:01:06;2.28;;;2.17;;
17482;SDS011;8858;52.308;20.994;2023-07-20T14:03:35;3.63;;;2.13;;
17482;SDS011;8858;52.308;20.994;2023-07-20T14:06:04;3.03;;;1.75;;
17482;SDS011;8858;52.308;20.994;2023-07-20T14:08:36;2.10;;;1.90;;
17482;SDS011;8858;52.308;20.994;2023-07-20T14:11:04;2.22;;;1.92;;
17482;SDS011;8858;52.308;20.994;2023-07-20T14:13:37;2.28;;;2.10;;
17482;SDS011;8858;52.308;20.994;2023-07-20T14:16:13;2.65;;;2.13;;
17482;SDS011;8858;52.308;20.994;2023-07-20T14:18:41;5.07;;;2.35;;
17482;SDS011;8858;52.308;20.994;2023-07-20T14:21:14;2.50;;;2.30;;
17482;SDS011;8858;52.308;20.994;2023-07-20T14:23:46;2.78;;;2.00;;
17482;SDS011;8858;52.308;20.994;2023-07-20T14:26:19;2.78;;;2.10;;
17482;SDS011;8858;52.308;20.994;2023-07-20T14:28:49;2.53;;;2.33;;
17482;SDS011;8858;52.308;20.994;2023-07-20T14:31:17;4.15;;;3.25;;
17482;SDS011;8858;52.308;20.994;2023-07-20T14:33:50;3.63;;;2.30;;
17482;SDS011;8858;52.308;20.994;2023-07-20T14:36:19;2.58;;;2.10;;
17482;SDS011;8858;52.308;20.994;2023-07-20T14:38:57;2.53;;;2.03;;
17482;SDS011;8858;52.308;20.994;2023-07-20T14:41:26;2.25;;;2.05;;
17482;SDS011;8858;52.308;20.994;2023-07-20T14:43:54;2.17;;;1.98;;
17482;SDS011;8858;52.308;20.994;2023-07-20T14:46:24;3.03;;;2.20;;
17482;SDS011;8858;52.308;20.994;2023-07-20T14:48:52;4.80;;;1.90;;
17482;SDS011;8858;52.308;20.994;2023-07-20T14:51:21;2.10;;;1.98;;
17482;SDS011;8858;52.308;20.994;2023-07-20T14:53:50;1.98;;;1.60;;
17482;SDS011;8858;52.308;20.994;2023-07-20T14:56:20;1.65;;;1.55;;
17482;SDS011;8858;52.308;20.994;2023-07-20T14:58:49;1.40;;;1.30;;
17482;SDS011;8858;52.308;20.994;2023-07-20T15:01:17;1.13;;;0.93;;
17482;SDS011;8858;52.308;20.994;2023-07-20T15:03:45;2.83;;;1.10;;
17482;SDS011;8858;52.308;20.994;2023-07-20T15:06:17;1.40;;;1.30;;
17482;SDS011;8858;52.308;20.994;2023-07-20T15:08:49;2.08;;;1.60;;
17482;SDS011;8858;52.308;20.994;2023-07-20T15:11:17;1.95;;;1.20;;
17482;SDS011;8858;52.308;20.994;2023-07-20T15:13:47;3.17;;;1.25;;
17482;SDS011;8858;52.308;20.994;2023-07-20T15:16:15;2.67;;;1.20;;